sensor_id;sensor_type;location;lat;lon;timestamp;temperature;humidity
29539;DHT22;16482;51.046;4.498;2023-05-16T00:00:58;24.10;37.90
29539;DHT22;16482;51.046;4.498;2023-05-16T00:03:28;24.10;37.80
29539;DHT22;16482;51.046;4.498;2023-05-16T00:06:02;24.00;37.80
29539;DHT22;16482;51.046;4.498;2023-05-16T00:08:30;24.10;37.80
29539;DHT22;16482;51.046;4.498;2023-05-16T00:10:58;24.00;37.90
29539;DHT22;16482;51.046;4.498;2023-05-16T00:13:32;24.10;37.80
29539;DHT22;16482;51.046;4.498;2023-05-16T00:16:00;24.10;37.80
29539;DHT22;16482;51.046;4.498;2023-05-16T00:18:30;24.00;37.60
29539;DHT22;16482;51.046;4.498;2023-05-16T00:21:03;24.00;37.70
29539;DHT22;16482;51.046;4.498;2023-05-16T00:23:30;24.00;37.60
29539;DHT22;16482;51.046;4.498;2023-05-16T00:25:59;24.00;37.80
29539;DHT22;16482;51.046;4.498;2023-05-16T00:28:34;24.00;37.60
29539;DHT22;16482;51.046;4.498;2023-05-16T00:31:00;24.00;37.60
29539;DHT22;16482;51.046;4.498;2023-05-16T00:33:29;24.00;37.70
29539;DHT22;16482;51.046;4.498;2023-05-16T00:36:04;24.00;37.60
29539;DHT22;16482;51.046;4.498;2023-05-16T00:38:30;24.00;37.80
29539;DHT22;16482;51.046;4.498;2023-05-16T00:40:59;24.00;37.80
29539;DHT22;16482;51.046;4.498;2023-05-16T00:43:28;24.00;37.60
29539;DHT22;16482;51.046;4.498;2023-05-16T00:46:01;24.00;37.60
29539;DHT22;16482;51.046;4.498;2023-05-16T00:48:31;24.00;37.70
29539;DHT22;16482;51.046;4.498;2023-05-16T00:51:00;24.00;37.60
29539;DHT22;16482;51.046;4.498;2023-05-16T00:53:36;24.00;37.60
29539;DHT22;16482;51.046;4.498;2023-05-16T00:56:02;24.00;37.60
29539;DHT22;16482;51.046;4.498;2023-05-16T00:58:32;24.00;37.60
29539;DHT22;16482;51.046;4.498;2023-05-16T01:01:01;24.00;37.60
29539;DHT22;16482;51.046;4.498;2023-05-16T01:03:29;24.00;37.50
29539;DHT22;16482;51.046;4.498;2023-05-16T01:06:03;24.00;37.50
29539;DHT22;16482;51.046;4.498;2023-05-16T01:08:32;24.00;37.50
29539;DHT22;16482;51.046;4.498;2023-05-16T01:11:15;24.00;37.50
29539;DHT22;16482;51.046;4.498;2023-05-16T01:16:39;24.00;37.40
29539;DHT22;16482;51.046;4.498;2023-05-16T01:19:18;23.90;37.40
29539;DHT22;16482;51.046;4.498;2023-05-16T01:22:04;23.90;37.40
29539;DHT22;16482;51.046;4.498;2023-05-16T01:24:47;24.00;37.40
29539;DHT22;16482;51.046;4.498;2023-05-16T01:27:21;24.00;37.40
29539;DHT22;16482;51.046;4.498;2023-05-16T01:29:48;23.90;37.50
29539;DHT22;16482;51.046;4.498;2023-05-16T01:32:20;23.90;37.40
29539;DHT22;16482;51.046;4.498;2023-05-16T01:34:48;23.90;37.40
29539;DHT22;16482;51.046;4.498;2023-05-16T01:37:34;24.00;37.30
29539;DHT22;16482;51.046;4.498;2023-05-16T01:42:55;23.90;37.20
29539;DHT22;16482;51.046;4.498;2023-05-16T01:45:31;23.90;37.30
29539;DHT22;16482;51.046;4.498;2023-05-16T01:48:07;23.90;37.40
29539;DHT22;16482;51.046;4.498;2023-05-16T01:50:42;23.90;37.40
29539;DHT22;16482;51.046;4.498;2023-05-16T01:53:15;23.90;37.30
29539;DHT22;16482;51.046;4.498;2023-05-16T01:58:38;23.90;37.30
29539;DHT22;16482;51.046;4.498;2023-05-16T02:01:06;23.80;37.20
29539;DHT22;16482;51.046;4.498;2023-05-16T02:03:33;23.90;37.30
29539;DHT22;16482;51.046;4.498;2023-05-16T02:06:02;23.90;37.20
29539;DHT22;16482;51.046;4.498;2023-05-16T02:08:30;23.80;37.20
29539;DHT22;16482;51.046;4.498;2023-05-16T02:11:04;23.90;37.20
29539;DHT22;16482;51.046;4.498;2023-05-16T02:13:30;23.80;37.10
29539;DHT22;16482;51.046;4.498;2023-05-16T02:15:58;23.80;37.20
29539;DHT22;16482;51.046;4.498;2023-05-16T02:18:34;23.90;37.20
29539;DHT22;16482;51.046;4.498;2023-05-16T02:21:00;23.90;37.20
29539;DHT22;16482;51.046;4.498;2023-05-16T02:23:35;23.80;37.10
29539;DHT22;16482;51.046;4.498;2023-05-16T02:26:01;23.90;37.20
29539;DHT22;16482;51.046;4.498;2023-05-16T02:28:30;23.80;37.10
29539;DHT22;16482;51.046;4.498;2023-05-16T02:31:04;23.90;37.10
29539;DHT22;16482;51.046;4.498;2023-05-16T02:33:30;23.80;37.10
29539;DHT22;16482;51.046;4.498;2023-05-16T02:35:59;23.80;37.00
29539;DHT22;16482;51.046;4.498;2023-05-16T02:38:32;23.80;37.00
29539;DHT22;16482;51.046;4.498;2023-05-16T02:41:01;23.80;37.10
29539;DHT22;16482;51.046;4.498;2023-05-16T02:43:36;23.80;37.00
29539;DHT22;16482;51.046;4.498;2023-05-16T02:46:19;23.80;37.00
29539;DHT22;16482;51.046;4.498;2023-05-16T02:48:45;23.80;36.90
29539;DHT22;16482;51.046;4.498;2023-05-16T02:51:11;23.80;37.10
29539;DHT22;16482;51.046;4.498;2023-05-16T02:53:37;23.80;37.10
29539;DHT22;16482;51.046;4.498;2023-05-16T02:56:03;23.80;36.90
29539;DHT22;16482;51.046;4.498;2023-05-16T02:58:31;23.80;37.00
29539;DHT22;16482;51.046;4.498;2023-05-16T03:01:00;23.80;36.90
29539;DHT22;16482;51.046;4.498;2023-05-16T03:03:35;23.80;36.90
29539;DHT22;16482;51.046;4.498;2023-05-16T03:06:01;23.80;36.90
29539;DHT22;16482;51.046;4.498;2023-05-16T03:08:30;23.80;36.90
29539;DHT22;16482;51.046;4.498;2023-05-16T03:11:04;23.80;36.90
29539;DHT22;16482;51.046;4.498;2023-05-16T03:13:30;23.80;36.80
29539;DHT22;16482;51.046;4.498;2023-05-16T03:15:59;23.80;36.80
29539;DHT22;16482;51.046;4.498;2023-05-16T03:18:28;23.80;36.80
29539;DHT22;16482;51.046;4.498;2023-05-16T03:21:00;23.80;36.80
29539;DHT22;16482;51.046;4.498;2023-05-16T03:23:30;23.80;36.80
29539;DHT22;16482;51.046;4.498;2023-05-16T03:26:05;23.80;36.90
29539;DHT22;16482;51.046;4.498;2023-05-16T03:28:32;23.80;36.80
29539;DHT22;16482;51.046;4.498;2023-05-16T03:31:00;23.80;36.80
29539;DHT22;16482;51.046;4.498;2023-05-16T03:33:29;23.70;36.70
29539;DHT22;16482;51.046;4.498;2023-05-16T03:36:04;23.70;36.60
29539;DHT22;16482;51.046;4.498;2023-05-16T03:38:30;23.80;36.60
29539;DHT22;16482;51.046;4.498;2023-05-16T03:41:05;23.70;36.80
29539;DHT22;16482;51.046;4.498;2023-05-16T03:43:31;23.80;36.70
29539;DHT22;16482;51.046;4.498;2023-05-16T03:46:00;23.80;36.70
29539;DHT22;16482;51.046;4.498;2023-05-16T03:48:35;23.70;36.60
29539;DHT22;16482;51.046;4.498;2023-05-16T03:51:01;23.70;36.60
29539;DHT22;16482;51.046;4.498;2023-05-16T03:53:30;23.70;36.70
29539;DHT22;16482;51.046;4.498;2023-05-16T03:56:02;23.70;36.60
29539;DHT22;16482;51.046;4.498;2023-05-16T03:58:31;23.70;36.60
29539;DHT22;16482;51.046;4.498;2023-05-16T04:01:00;23.70;36.60
29539;DHT22;16482;51.046;4.498;2023-05-16T04:03:28;23.70;36.60
29539;DHT22;16482;51.046;4.498;2023-05-16T04:06:03;23.70;36.60
29539;DHT22;16482;51.046;4.498;2023-05-16T04:08:29;23.80;36.70
29539;DHT22;16482;51.046;4.498;2023-05-16T04:11:05;23.70;36.60
29539;DHT22;16482;51.046;4.498;2023-05-16T04:13:31;23.70;36.50
29539;DHT22;16482;51.046;4.498;2023-05-16T04:16:06;23.70;36.60
29539;DHT22;16482;51.046;4.498;2023-05-16T04:18:32;23.70;36.50
29539;DHT22;16482;51.046;4.498;2023-05-16T04:21:00;23.70;36.60
29539;DHT22;16482;51.046;4.498;2023-05-16T04:23:30;23.70;36.50
29539;DHT22;16482;51.046;4.498;2023-05-16T04:25:58;23.70;36.60
29539;DHT22;16482;51.046;4.498;2023-05-16T04:28:35;23.70;36.50
29539;DHT22;16482;51.046;4.498;2023-05-16T04:31:01;23.70;36.50
29539;DHT22;16482;51.046;4.498;2023-05-16T04:33:30;23.70;36.50
29539;DHT22;16482;51.046;4.498;2023-05-16T04:36:05;23.70;36.50
29539;DHT22;16482;51.046;4.498;2023-05-16T04:38:31;23.70;36.50
29539;DHT22;16482;51.046;4.498;2023-05-16T04:41:00;23.70;37.10
29539;DHT22;16482;51.046;4.498;2023-05-16T04:43:27;23.70;37.10
29539;DHT22;16482;51.046;4.498;2023-05-16T04:46:01;23.70;36.50
29539;DHT22;16482;51.046;4.498;2023-05-16T04:48:31;23.70;36.50
29539;DHT22;16482;51.046;4.498;2023-05-16T04:51:02;23.70;36.50
29539;DHT22;16482;51.046;4.498;2023-05-16T04:53:30;23.70;36.60
29539;DHT22;16482;51.046;4.498;2023-05-16T04:55:59;23.70;36.60
29539;DHT22;16482;51.046;4.498;2023-05-16T04:58:34;23.70;36.60
29539;DHT22;16482;51.046;4.498;2023-05-16T05:01:00;23.70;36.50
29539;DHT22;16482;51.046;4.498;2023-05-16T05:03:34;23.60;36.60
29539;DHT22;16482;51.046;4.498;2023-05-16T05:06:00;23.60;36.50
29539;DHT22;16482;51.046;4.498;2023-05-16T05:08:34;23.70;36.60
29539;DHT22;16482;51.046;4.498;2023-05-16T05:11:03;23.70;36.60
29539;DHT22;16482;51.046;4.498;2023-05-16T05:13:32;23.70;36.60
29539;DHT22;16482;51.046;4.498;2023-05-16T05:16:00;23.60;36.50
29539;DHT22;16482;51.046;4.498;2023-05-16T05:18:29;23.60;36.50
29539;DHT22;16482;51.046;4.498;2023-05-16T05:21:03;23.60;36.50
29539;DHT22;16482;51.046;4.498;2023-05-16T05:23:31;23.70;36.60
29539;DHT22;16482;51.046;4.498;2023-05-16T05:26:02;23.60;36.50
29539;DHT22;16482;51.046;4.498;2023-05-16T05:28:31;23.60;36.30
29539;DHT22;16482;51.046;4.498;2023-05-16T05:31:00;23.60;36.10
29539;DHT22;16482;51.046;4.498;2023-05-16T05:33:35;23.60;36.40
29539;DHT22;16482;51.046;4.498;2023-05-16T05:36:01;23.70;36.50
29539;DHT22;16482;51.046;4.498;2023-05-16T05:38:29;23.60;36.80
29539;DHT22;16482;51.046;4.498;2023-05-16T05:41:00;23.60;36.80
29539;DHT22;16482;51.046;4.498;2023-05-16T05:43:35;23.70;36.80
29539;DHT22;16482;51.046;4.498;2023-05-16T05:46:01;23.70;36.80
29539;DHT22;16482;51.046;4.498;2023-05-16T05:48:36;23.70;36.80
29539;DHT22;16482;51.046;4.498;2023-05-16T05:51:02;23.70;36.70
29539;DHT22;16482;51.046;4.498;2023-05-16T05:53:30;23.80;36.80
29539;DHT22;16482;51.046;4.498;2023-05-16T05:55:59;23.80;36.90
29539;DHT22;16482;51.046;4.498;2023-05-16T05:58:28;23.80;37.50
29539;DHT22;16482;51.046;4.498;2023-05-16T06:01:01;23.80;36.80
29539;DHT22;16482;51.046;4.498;2023-05-16T06:03:30;24.00;36.90
29539;DHT22;16482;51.046;4.498;2023-05-16T06:06:05;24.00;36.80
29539;DHT22;16482;51.046;4.498;2023-05-16T06:08:31;24.00;36.80
29539;DHT22;16482;51.046;4.498;2023-05-16T06:11:00;24.00;36.70
29539;DHT22;16482;51.046;4.498;2023-05-16T06:13:29;24.00;36.70
29539;DHT22;16482;51.046;4.498;2023-05-16T06:16:04;24.00;36.70
29539;DHT22;16482;51.046;4.498;2023-05-16T06:18:30;24.10;36.70
29539;DHT22;16482;51.046;4.498;2023-05-16T06:21:05;24.10;36.70
29539;DHT22;16482;51.046;4.498;2023-05-16T06:23:31;24.10;36.70
29539;DHT22;16482;51.046;4.498;2023-05-16T06:26:01;24.10;36.60
29539;DHT22;16482;51.046;4.498;2023-05-16T06:28:30;24.10;36.70
29539;DHT22;16482;51.046;4.498;2023-05-16T06:31:01;24.20;36.70
29539;DHT22;16482;51.046;4.498;2023-05-16T06:33:31;24.20;36.60
29539;DHT22;16482;51.046;4.498;2023-05-16T06:36:00;24.20;36.60
29539;DHT22;16482;51.046;4.498;2023-05-16T06:38:35;24.20;36.50
29539;DHT22;16482;51.046;4.498;2023-05-16T06:41:00;24.30;36.50
29539;DHT22;16482;51.046;4.498;2023-05-16T06:43:29;24.20;36.40
29539;DHT22;16482;51.046;4.498;2023-05-16T06:46:04;24.30;36.60
29539;DHT22;16482;51.046;4.498;2023-05-16T06:48:30;24.50;36.40
29539;DHT22;16482;51.046;4.498;2023-05-16T06:51:04;24.70;36.00
29539;DHT22;16482;51.046;4.498;2023-05-16T06:53:30;25.00;35.40
29539;DHT22;16482;51.046;4.498;2023-05-16T06:55:59;25.20;34.80
29539;DHT22;16482;51.046;4.498;2023-05-16T06:58:34;25.40;34.50
29539;DHT22;16482;51.046;4.498;2023-05-16T07:01:02;25.60;34.20
29539;DHT22;16482;51.046;4.498;2023-05-16T07:03:31;25.70;33.90
29539;DHT22;16482;51.046;4.498;2023-05-16T07:05:59;25.80;33.60
29539;DHT22;16482;51.046;4.498;2023-05-16T07:08:30;25.90;33.40
29539;DHT22;16482;51.046;4.498;2023-05-16T07:10:59;26.00;33.30
29539;DHT22;16482;51.046;4.498;2023-05-16T07:13:34;26.00;33.20
29539;DHT22;16482;51.046;4.498;2023-05-16T07:16:00;25.90;33.20
29539;DHT22;16482;51.046;4.498;2023-05-16T07:18:35;25.80;33.40
29539;DHT22;16482;51.046;4.498;2023-05-16T07:21:01;25.70;33.60
29539;DHT22;16482;51.046;4.498;2023-05-16T07:23:35;25.60;33.80
29539;DHT22;16482;51.046;4.498;2023-05-16T07:26:02;25.50;33.90
29539;DHT22;16482;51.046;4.498;2023-05-16T07:28:30;25.40;33.90
29539;DHT22;16482;51.046;4.498;2023-05-16T07:31:01;25.40;34.80
29539;DHT22;16482;51.046;4.498;2023-05-16T07:33:31;25.30;34.30
29539;DHT22;16482;51.046;4.498;2023-05-16T07:35:59;25.30;34.40
29539;DHT22;16482;51.046;4.498;2023-05-16T07:38:31;25.30;34.30
29539;DHT22;16482;51.046;4.498;2023-05-16T07:41:00;25.20;34.40
29539;DHT22;16482;51.046;4.498;2023-05-16T07:43:35;25.20;34.40
29539;DHT22;16482;51.046;4.498;2023-05-16T07:46:01;25.20;34.50
29539;DHT22;16482;51.046;4.498;2023-05-16T07:48:36;25.20;34.60
29539;DHT22;16482;51.046;4.498;2023-05-16T07:51:02;25.20;34.80
29539;DHT22;16482;51.046;4.498;2023-05-16T07:53:31;25.10;35.10
29539;DHT22;16482;51.046;4.498;2023-05-16T07:56:06;25.10;35.40
29539;DHT22;16482;51.046;4.498;2023-05-16T07:58:32;25.20;35.80
29539;DHT22;16482;51.046;4.498;2023-05-16T08:01:01;25.10;35.90
29539;DHT22;16482;51.046;4.498;2023-05-16T08:03:29;25.10;36.20
29539;DHT22;16482;51.046;4.498;2023-05-16T08:06:03;25.10;36.40
29539;DHT22;16482;51.046;4.498;2023-05-16T08:08:31;25.10;36.50
29539;DHT22;16482;51.046;4.498;2023-05-16T08:11:00;25.10;36.50
29539;DHT22;16482;51.046;4.498;2023-05-16T08:13:35;25.10;36.40
29539;DHT22;16482;51.046;4.498;2023-05-16T08:16:01;25.10;36.50
29539;DHT22;16482;51.046;4.498;2023-05-16T08:18:36;25.10;36.50
29539;DHT22;16482;51.046;4.498;2023-05-16T08:21:02;25.10;36.50
29539;DHT22;16482;51.046;4.498;2023-05-16T08:23:35;25.10;36.50
29539;DHT22;16482;51.046;4.498;2023-05-16T08:26:01;25.10;36.60
29539;DHT22;16482;51.046;4.498;2023-05-16T08:28:37;25.10;36.60
29539;DHT22;16482;51.046;4.498;2023-05-16T08:31:03;25.10;36.50
29539;DHT22;16482;51.046;4.498;2023-05-16T08:33:31;25.10;36.50
29539;DHT22;16482;51.046;4.498;2023-05-16T08:36:00;25.10;36.50
29539;DHT22;16482;51.046;4.498;2023-05-16T08:38:34;25.20;36.40
29539;DHT22;16482;51.046;4.498;2023-05-16T08:41:02;25.20;36.30
29539;DHT22;16482;51.046;4.498;2023-05-16T08:43:31;25.20;36.10
29539;DHT22;16482;51.046;4.498;2023-05-16T08:45:59;25.20;36.10
29539;DHT22;16482;51.046;4.498;2023-05-16T08:59:21;25.20;36.10
29539;DHT22;16482;51.046;4.498;2023-05-16T09:01:53;25.90;33.80
29539;DHT22;16482;51.046;4.498;2023-05-16T09:04:20;25.70;34.00
29539;DHT22;16482;51.046;4.498;2023-05-16T09:06:55;25.60;34.30
29539;DHT22;16482;51.046;4.498;2023-05-16T09:09:21;25.60;34.30
29539;DHT22;16482;51.046;4.498;2023-05-16T09:11:56;25.50;34.20
29539;DHT22;16482;51.046;4.498;2023-05-16T09:14:24;25.50;34.30
29539;DHT22;16482;51.046;4.498;2023-05-16T09:17:06;25.50;34.60
29539;DHT22;16482;51.046;4.498;2023-05-16T09:19:43;25.50;34.80
29539;DHT22;16482;51.046;4.498;2023-05-16T09:22:11;25.40;34.90
29539;DHT22;16482;51.046;4.498;2023-05-16T09:24:42;25.40;35.20
29539;DHT22;16482;51.046;4.498;2023-05-16T09:27:13;25.40;35.30
29539;DHT22;16482;51.046;4.498;2023-05-16T09:29:42;25.40;35.30
29539;DHT22;16482;51.046;4.498;2023-05-16T09:32:12;25.30;35.20
29539;DHT22;16482;51.046;4.498;2023-05-16T09:34:43;25.30;35.00
29539;DHT22;16482;51.046;4.498;2023-05-16T09:37:10;25.30;35.20
29539;DHT22;16482;51.046;4.498;2023-05-16T09:39:46;25.30;35.10
29539;DHT22;16482;51.046;4.498;2023-05-16T09:42:13;25.30;35.20
29539;DHT22;16482;51.046;4.498;2023-05-16T09:44:40;25.30;35.30
29539;DHT22;16482;51.046;4.498;2023-05-16T09:47:06;25.30;35.50
29539;DHT22;16482;51.046;4.498;2023-05-16T09:49:32;25.30;35.30
29539;DHT22;16482;51.046;4.498;2023-05-16T09:52:01;25.30;35.40
29539;DHT22;16482;51.046;4.498;2023-05-16T09:54:32;25.30;35.50
29539;DHT22;16482;51.046;4.498;2023-05-16T09:56:59;25.30;35.60
29539;DHT22;16482;51.046;4.498;2023-05-16T09:59:28;25.20;35.90
29539;DHT22;16482;51.046;4.498;2023-05-16T10:01:57;25.20;35.80
29539;DHT22;16482;51.046;4.498;2023-05-16T10:04:26;25.30;36.00
29539;DHT22;16482;51.046;4.498;2023-05-16T10:06:54;25.30;36.00
29539;DHT22;16482;51.046;4.498;2023-05-16T10:09:23;25.20;36.00
29539;DHT22;16482;51.046;4.498;2023-05-16T10:11:52;25.20;35.90
29539;DHT22;16482;51.046;4.498;2023-05-16T10:14:27;25.20;36.00
29539;DHT22;16482;51.046;4.498;2023-05-16T10:16:55;25.20;35.90
29539;DHT22;16482;51.046;4.498;2023-05-16T10:19:24;25.20;36.10
29539;DHT22;16482;51.046;4.498;2023-05-16T10:21:53;25.20;36.20
29539;DHT22;16482;51.046;4.498;2023-05-16T10:24:30;25.20;35.70
29539;DHT22;16482;51.046;4.498;2023-05-16T10:26:59;25.20;36.00
29539;DHT22;16482;51.046;4.498;2023-05-16T10:29:27;25.20;36.00
29539;DHT22;16482;51.046;4.498;2023-05-16T10:31:54;25.10;36.00
29539;DHT22;16482;51.046;4.498;2023-05-16T10:34:21;25.10;36.00
29539;DHT22;16482;51.046;4.498;2023-05-16T10:36:51;25.10;36.00
29539;DHT22;16482;51.046;4.498;2023-05-16T10:39:21;25.20;35.80
29539;DHT22;16482;51.046;4.498;2023-05-16T10:41:50;25.20;35.70
29539;DHT22;16482;51.046;4.498;2023-05-16T10:44:22;25.20;35.80
29539;DHT22;16482;51.046;4.498;2023-05-16T10:46:51;25.20;35.50
29539;DHT22;16482;51.046;4.498;2023-05-16T10:49:21;25.20;35.80
29539;DHT22;16482;51.046;4.498;2023-05-16T10:52:09;25.10;35.30
29539;DHT22;16482;51.046;4.498;2023-05-16T10:54:36;25.10;35.20
29539;DHT22;16482;51.046;4.498;2023-05-16T10:57:05;25.00;35.60
29539;DHT22;16482;51.046;4.498;2023-05-16T10:59:42;25.00;35.90
29539;DHT22;16482;51.046;4.498;2023-05-16T11:02:29;25.00;34.90
29539;DHT22;16482;51.046;4.498;2023-05-16T11:04:59;25.00;35.70
29539;DHT22;16482;51.046;4.498;2023-05-16T11:07:30;25.00;35.90
29539;DHT22;16482;51.046;4.498;2023-05-16T11:10:14;25.00;35.70
29539;DHT22;16482;51.046;4.498;2023-05-16T11:12:50;25.00;36.20
29539;DHT22;16482;51.046;4.498;2023-05-16T11:15:19;25.00;36.00
29539;DHT22;16482;51.046;4.498;2023-05-16T11:17:47;25.00;35.80
29539;DHT22;16482;51.046;4.498;2023-05-16T11:20:29;25.00;35.90
29539;DHT22;16482;51.046;4.498;2023-05-16T11:25:44;25.00;35.90
29539;DHT22;16482;51.046;4.498;2023-05-16T11:28:12;25.00;36.30
29539;DHT22;16482;51.046;4.498;2023-05-16T11:30:46;25.00;37.40
29539;DHT22;16482;51.046;4.498;2023-05-16T11:33:14;25.00;37.80
29539;DHT22;16482;51.046;4.498;2023-05-16T11:35:41;25.00;38.00
29539;DHT22;16482;51.046;4.498;2023-05-16T11:38:14;25.10;38.00
29539;DHT22;16482;51.046;4.498;2023-05-16T11:40:45;25.00;38.10
29539;DHT22;16482;51.046;4.498;2023-05-16T11:43:17;25.00;37.90
29539;DHT22;16482;51.046;4.498;2023-05-16T11:45:53;25.10;37.80
29539;DHT22;16482;51.046;4.498;2023-05-16T11:48:37;25.10;37.80
29539;DHT22;16482;51.046;4.498;2023-05-16T11:51:03;25.00;37.80
29539;DHT22;16482;51.046;4.498;2023-05-16T11:53:32;25.00;37.70
29539;DHT22;16482;51.046;4.498;2023-05-16T11:56:02;25.00;37.70
29539;DHT22;16482;51.046;4.498;2023-05-16T11:58:33;25.00;37.70
29539;DHT22;16482;51.046;4.498;2023-05-16T12:01:03;25.00;37.50
29539;DHT22;16482;51.046;4.498;2023-05-16T12:03:35;25.00;37.30
29539;DHT22;16482;51.046;4.498;2023-05-16T12:06:11;25.00;37.40
29539;DHT22;16482;51.046;4.498;2023-05-16T12:08:50;25.00;37.30
29539;DHT22;16482;51.046;4.498;2023-05-16T12:11:17;25.00;37.80
29539;DHT22;16482;51.046;4.498;2023-05-16T12:13:46;25.00;37.30
29539;DHT22;16482;51.046;4.498;2023-05-16T12:16:15;25.00;37.20
29539;DHT22;16482;51.046;4.498;2023-05-16T12:18:41;25.00;37.10
29539;DHT22;16482;51.046;4.498;2023-05-16T12:21:15;25.00;37.10
29539;DHT22;16482;51.046;4.498;2023-05-16T12:23:41;25.00;37.10
29539;DHT22;16482;51.046;4.498;2023-05-16T12:26:08;24.90;37.10
29539;DHT22;16482;51.046;4.498;2023-05-16T12:28:34;25.00;36.90
29539;DHT22;16482;51.046;4.498;2023-05-16T12:31:17;25.00;36.20
29539;DHT22;16482;51.046;4.498;2023-05-16T12:33:44;25.00;36.10
29539;DHT22;16482;51.046;4.498;2023-05-16T12:36:14;24.90;36.00
29539;DHT22;16482;51.046;4.498;2023-05-16T12:38:45;25.00;35.90
29539;DHT22;16482;51.046;4.498;2023-05-16T12:41:21;25.00;35.90
29539;DHT22;16482;51.046;4.498;2023-05-16T12:44:14;25.00;35.70
29539;DHT22;16482;51.046;4.498;2023-05-16T12:46:54;25.00;35.70
29539;DHT22;16482;51.046;4.498;2023-05-16T12:49:25;25.00;35.40
29539;DHT22;16482;51.046;4.498;2023-05-16T12:51:54;24.90;35.60
29539;DHT22;16482;51.046;4.498;2023-05-16T12:54:24;24.90;35.30
29539;DHT22;16482;51.046;4.498;2023-05-16T12:56:53;24.90;35.60
29539;DHT22;16482;51.046;4.498;2023-05-16T12:59:22;25.00;35.50
29539;DHT22;16482;51.046;4.498;2023-05-16T13:01:57;24.90;35.50
29539;DHT22;16482;51.046;4.498;2023-05-16T13:04:23;24.90;35.00
29539;DHT22;16482;51.046;4.498;2023-05-16T13:06:57;24.90;35.30
29539;DHT22;16482;51.046;4.498;2023-05-16T13:09:23;24.90;35.30
29539;DHT22;16482;51.046;4.498;2023-05-16T13:11:58;24.90;35.20
29539;DHT22;16482;51.046;4.498;2023-05-16T13:14:24;25.00;35.20
29539;DHT22;16482;51.046;4.498;2023-05-16T13:16:53;24.90;35.10
29539;DHT22;16482;51.046;4.498;2023-05-16T13:19:22;24.90;34.90
29539;DHT22;16482;51.046;4.498;2023-05-16T13:21:53;24.90;35.10
29539;DHT22;16482;51.046;4.498;2023-05-16T13:24:22;24.90;35.00
29539;DHT22;16482;51.046;4.498;2023-05-16T13:26:55;24.90;34.60
29539;DHT22;16482;51.046;4.498;2023-05-16T13:29:22;24.90;34.90
29539;DHT22;16482;51.046;4.498;2023-05-16T13:31:57;24.80;34.70
29539;DHT22;16482;51.046;4.498;2023-05-16T13:34:23;24.90;34.60
29539;DHT22;16482;51.046;4.498;2023-05-16T13:36:54;24.80;34.40
29539;DHT22;16482;51.046;4.498;2023-05-16T13:39:23;24.80;34.50
29539;DHT22;16482;51.046;4.498;2023-05-16T13:41:54;24.80;34.20
29539;DHT22;16482;51.046;4.498;2023-05-16T13:44:22;24.90;34.40
29539;DHT22;16482;51.046;4.498;2023-05-16T13:46:51;24.80;34.50
29539;DHT22;16482;51.046;4.498;2023-05-16T13:49:25;24.80;34.30
29539;DHT22;16482;51.046;4.498;2023-05-16T13:51:51;24.80;34.40
29539;DHT22;16482;51.046;4.498;2023-05-16T13:54:26;24.80;34.50
29539;DHT22;16482;51.046;4.498;2023-05-16T13:56:52;24.80;34.40
29539;DHT22;16482;51.046;4.498;2023-05-16T13:59:27;24.80;34.50
29539;DHT22;16482;51.046;4.498;2023-05-16T14:01:53;24.80;34.30
29539;DHT22;16482;51.046;4.498;2023-05-16T14:04:22;24.80;33.80
29539;DHT22;16482;51.046;4.498;2023-05-16T14:06:57;24.80;33.90
29539;DHT22;16482;51.046;4.498;2023-05-16T14:09:23;24.80;33.70
29539;DHT22;16482;51.046;4.498;2023-05-16T14:11:58;24.80;34.10
29539;DHT22;16482;51.046;4.498;2023-05-16T14:14:24;24.80;34.10
29539;DHT22;16482;51.046;4.498;2023-05-16T14:16:58;24.80;34.30
29539;DHT22;16482;51.046;4.498;2023-05-16T14:19:24;24.80;34.20
29539;DHT22;16482;51.046;4.498;2023-05-16T14:21:53;24.90;34.40
29539;DHT22;16482;51.046;4.498;2023-05-16T14:24:26;24.90;34.60
29539;DHT22;16482;51.046;4.498;2023-05-16T14:26:55;24.90;34.60
29539;DHT22;16482;51.046;4.498;2023-05-16T14:29:23;24.90;34.90
29539;DHT22;16482;51.046;4.498;2023-05-16T14:31:58;24.90;34.80
29539;DHT22;16482;51.046;4.498;2023-05-16T14:34:24;24.90;34.70
29539;DHT22;16482;51.046;4.498;2023-05-16T14:36:53;24.80;34.50
29539;DHT22;16482;51.046;4.498;2023-05-16T14:39:26;24.80;34.40
29539;DHT22;16482;51.046;4.498;2023-05-16T14:41:52;24.90;34.30
29539;DHT22;16482;51.046;4.498;2023-05-16T14:44:26;24.90;34.50
29539;DHT22;16482;51.046;4.498;2023-05-16T14:46:54;24.90;34.30
29539;DHT22;16482;51.046;4.498;2023-05-16T14:49:23;24.90;34.60
29539;DHT22;16482;51.046;4.498;2023-05-16T14:51:58;24.90;34.60
29539;DHT22;16482;51.046;4.498;2023-05-16T14:54:24;24.90;34.70
29539;DHT22;16482;51.046;4.498;2023-05-16T14:56:53;24.90;34.20
29539;DHT22;16482;51.046;4.498;2023-05-16T14:59:23;24.90;34.40
29539;DHT22;16482;51.046;4.498;2023-05-16T15:01:54;24.90;34.40
29539;DHT22;16482;51.046;4.498;2023-05-16T15:04:23;24.90;34.40
29539;DHT22;16482;51.046;4.498;2023-05-16T15:06:52;24.90;34.40
29539;DHT22;16482;51.046;4.498;2023-05-16T15:09:28;24.90;34.30
29539;DHT22;16482;51.046;4.498;2023-05-16T15:11:54;24.90;34.20
29539;DHT22;16482;51.046;4.498;2023-05-16T15:14:22;24.90;34.20
29539;DHT22;16482;51.046;4.498;2023-05-16T15:16:56;25.00;33.90
29539;DHT22;16482;51.046;4.498;2023-05-16T15:19:25;25.00;33.50
29539;DHT22;16482;51.046;4.498;2023-05-16T15:21:54;25.00;33.40
29539;DHT22;16482;51.046;4.498;2023-05-16T15:24:25;25.00;33.30
29539;DHT22;16482;51.046;4.498;2023-05-16T15:26:53;25.00;33.10
29539;DHT22;16482;51.046;4.498;2023-05-16T15:29:29;25.00;33.00
29539;DHT22;16482;51.046;4.498;2023-05-16T15:31:55;25.10;32.90
29539;DHT22;16482;51.046;4.498;2023-05-16T15:34:24;25.00;32.70
29539;DHT22;16482;51.046;4.498;2023-05-16T15:36:53;25.10;32.80
29539;DHT22;16482;51.046;4.498;2023-05-16T15:39:23;25.00;32.70
29539;DHT22;16482;51.046;4.498;2023-05-16T15:41:53;25.10;32.70
29539;DHT22;16482;51.046;4.498;2023-05-16T15:44:28;25.10;32.50
29539;DHT22;16482;51.046;4.498;2023-05-16T15:46:54;25.10;32.50
29539;DHT22;16482;51.046;4.498;2023-05-16T15:49:23;25.10;32.50
29539;DHT22;16482;51.046;4.498;2023-05-16T15:51:53;25.10;32.50
29539;DHT22;16482;51.046;4.498;2023-05-16T15:54:21;25.00;32.50
29539;DHT22;16482;51.046;4.498;2023-05-16T15:56:55;25.10;32.40
29539;DHT22;16482;51.046;4.498;2023-05-16T15:59:25;25.10;32.40
29539;DHT22;16482;51.046;4.498;2023-05-16T16:01:53;25.10;32.40
29539;DHT22;16482;51.046;4.498;2023-05-16T16:04:27;25.10;32.30
29539;DHT22;16482;51.046;4.498;2023-05-16T16:06:53;25.10;32.40
29539;DHT22;16482;51.046;4.498;2023-05-16T16:09:28;25.10;32.40
29539;DHT22;16482;51.046;4.498;2023-05-16T16:11:54;25.10;32.40